sensor_id;sensor_type;location;lat;lon;timestamp;pressure;altitude;pressure_sealevel;temperature;humidity
64066;BME280;50318;54.760;9.408;2023-03-01T00:02:12;102785.88;;;4.34;69.46
64066;BME280;50318;54.760;9.408;2023-03-01T00:04:38;102787.81;;;4.34;69.72
64066;BME280;50318;54.760;9.408;2023-03-01T00:07:04;102775.72;;;4.31;69.66
64066;BME280;50318;54.760;9.408;2023-03-01T00:09:30;102776.88;;;4.30;69.60
64066;BME280;50318;54.760;9.408;2023-03-01T00:11:57;102780.88;;;4.36;70.14
64066;BME280;50318;54.760;9.408;2023-03-01T00:14:23;102782.09;;;4.39;70.14
64066;BME280;50318;54.760;9.408;2023-03-01T00:16:49;102772.81;;;4.40;70.13
64066;BME280;50318;54.760;9.408;2023-03-01T00:19:17;102777.50;;;4.43;70.22
64066;BME280;50318;54.760;9.408;2023-03-01T00:21:44;102764.06;;;4.30;69.77
64066;BME280;50318;54.760;9.408;2023-03-01T00:24:10;102777.72;;;4.34;70.31
64066;BME280;50318;54.760;9.408;2023-03-01T00:26:37;102762.88;;;4.28;69.82
64066;BME280;50318;54.760;9.408;2023-03-01T00:29:04;102765.84;;;4.23;70.29
64066;BME280;50318;54.760;9.408;2023-03-01T00:31:32;102777.91;;;4.25;70.37
64066;BME280;50318;54.760;9.408;2023-03-01T00:34:00;102778.75;;;4.26;70.54
64066;BME280;50318;54.760;9.408;2023-03-01T00:36:30;102777.91;;;4.25;70.29
64066;BME280;50318;54.760;9.408;2023-03-01T00:38:56;102783.88;;;4.31;69.84
64066;BME280;50318;54.760;9.408;2023-03-01T00:41:23;102790.53;;;4.34;70.29
64066;BME280;50318;54.760;9.408;2023-03-01T00:43:50;102785.88;;;4.34;70.33
64066;BME280;50318;54.760;9.408;2023-03-01T00:46:18;102779.66;;;4.34;70.10
64066;BME280;50318;54.760;9.408;2023-03-01T00:48:45;102774.16;;;4.30;69.64
64066;BME280;50318;54.760;9.408;2023-03-01T00:51:15;102778.44;;;4.31;70.32
64066;BME280;50318;54.760;9.408;2023-03-01T00:53:46;102776.53;;;4.31;70.34
64066;BME280;50318;54.760;9.408;2023-03-01T00:56:14;102779.25;;;4.31;69.95
64066;BME280;50318;54.760;9.408;2023-03-01T00:58:40;102777.22;;;4.28;70.20
64066;BME280;50318;54.760;9.408;2023-03-01T01:01:18;102779.84;;;4.25;70.10
64066;BME280;50318;54.760;9.408;2023-03-01T01:03:48;102784.84;;;4.23;70.08
64066;BME280;50318;54.760;9.408;2023-03-01T01:06:20;102791.44;;;4.22;69.54
64066;BME280;50318;54.760;9.408;2023-03-01T01:08:48;102778.41;;;4.12;69.59
64066;BME280;50318;54.760;9.408;2023-03-01T01:11:15;102786.91;;;4.10;69.69
64066;BME280;50318;54.760;9.408;2023-03-01T01:13:43;102779.06;;;4.05;69.64
64066;BME280;50318;54.760;9.408;2023-03-01T01:16:09;102771.00;;;3.93;69.04
64066;BME280;50318;54.760;9.408;2023-03-01T01:18:36;102767.34;;;3.85;69.47
64066;BME280;50318;54.760;9.408;2023-03-01T01:21:08;102762.69;;;3.86;69.87
64066;BME280;50318;54.760;9.408;2023-03-01T01:23:36;102760.28;;;3.81;69.13
64066;BME280;50318;54.760;9.408;2023-03-01T01:26:17;102764.56;;;3.82;69.72
64066;BME280;50318;54.760;9.408;2023-03-01T01:28:44;102764.13;;;3.80;70.08
64066;BME280;50318;54.760;9.408;2023-03-01T01:31:10;102758.50;;;3.73;69.37
64066;BME280;50318;54.760;9.408;2023-03-01T01:33:37;102744.84;;;3.69;69.46
64066;BME280;50318;54.760;9.408;2023-03-01T01:36:07;102746.16;;;3.75;69.76
64066;BME280;50318;54.760;9.408;2023-03-01T01:38:34;102742.66;;;3.75;69.86
64066;BME280;50318;54.760;9.408;2023-03-01T01:41:00;102747.22;;;3.70;69.64
64066;BME280;50318;54.760;9.408;2023-03-01T01:43:30;102738.78;;;3.76;69.44
64066;BME280;50318;54.760;9.408;2023-03-01T01:46:29;102738.13;;;3.79;69.95
64066;BME280;50318;54.760;9.408;2023-03-01T01:49:02;102741.50;;;3.76;69.48
64066;BME280;50318;54.760;9.408;2023-03-01T01:51:36;102744.22;;;3.76;69.60
64066;BME280;50318;54.760;9.408;2023-03-01T01:54:03;102741.50;;;3.76;69.22
64066;BME280;50318;54.760;9.408;2023-03-01T01:56:32;102738.44;;;3.77;69.45
64066;BME280;50318;54.760;9.408;2023-03-01T01:58:58;102738.78;;;3.76;69.79
64066;BME280;50318;54.760;9.408;2023-03-01T02:01:25;102730.06;;;3.66;69.47
64066;BME280;50318;54.760;9.408;2023-03-01T02:03:51;102730.00;;;3.63;69.86
64066;BME280;50318;54.760;9.408;2023-03-01T02:06:33;102724.72;;;3.54;69.62
64066;BME280;50318;54.760;9.408;2023-03-01T02:09:07;102723.88;;;3.50;69.95
64066;BME280;50318;54.760;9.408;2023-03-01T02:11:34;102715.22;;;3.45;69.66
64066;BME280;50318;54.760;9.408;2023-03-01T02:14:01;102721.16;;;3.50;70.11
64066;BME280;50318;54.760;9.408;2023-03-01T02:16:28;102730.88;;;3.51;69.37
64066;BME280;50318;54.760;9.408;2023-03-01T02:18:55;102727.78;;;3.53;70.23
64066;BME280;50318;54.760;9.408;2023-03-01T02:21:41;102723.63;;;3.55;70.11
64066;BME280;50318;54.760;9.408;2023-03-01T02:27:06;102718.44;;;3.50;69.83
64066;BME280;50318;54.760;9.408;2023-03-01T02:29:33;102710.22;;;3.47;69.28
64066;BME280;50318;54.760;9.408;2023-03-01T02:32:02;102720.63;;;3.45;69.64
64066;BME280;50318;54.760;9.408;2023-03-01T02:34:31;102711.97;;;3.39;69.79
64066;BME280;50318;54.760;9.408;2023-03-01T02:37:03;102708.56;;;3.42;69.30
64066;BME280;50318;54.760;9.408;2023-03-01T02:39:34;102715.13;;;3.41;69.79
64066;BME280;50318;54.760;9.408;2023-03-01T02:42:03;102702.28;;;3.38;69.54
64066;BME280;50318;54.760;9.408;2023-03-01T02:44:30;102703.84;;;3.39;69.73
64066;BME280;50318;54.760;9.408;2023-03-01T02:46:56;102698.84;;;3.41;70.03
64066;BME280;50318;54.760;9.408;2023-03-01T02:49:29;102689.50;;;3.38;70.12
64066;BME280;50318;54.760;9.408;2023-03-01T02:52:01;102701.13;;;3.39;69.59
64066;BME280;50318;54.760;9.408;2023-03-01T02:54:40;102702.69;;;3.40;69.80
64066;BME280;50318;54.760;9.408;2023-03-01T02:57:10;102699.28;;;3.43;70.05
64066;BME280;50318;54.760;9.408;2023-03-01T02:59:38;102699.28;;;3.43;69.96
64066;BME280;50318;54.760;9.408;2023-03-01T03:02:08;102701.56;;;3.41;69.69
64066;BME280;50318;54.760;9.408;2023-03-01T03:04:43;102697.28;;;3.40;69.98
64066;BME280;50318;54.760;9.408;2023-03-01T03:07:10;102698.41;;;3.39;69.55
64066;BME280;50318;54.760;9.408;2023-03-01T03:09:36;102686.25;;;3.33;69.52
64066;BME280;50318;54.760;9.408;2023-03-01T03:12:03;102704.78;;;3.31;69.30
64066;BME280;50318;54.760;9.408;2023-03-01T03:14:29;102694.91;;;3.23;69.25
64066;BME280;50318;54.760;9.408;2023-03-01T03:16:56;102683.13;;;3.15;68.89
64066;BME280;50318;54.760;9.408;2023-03-01T03:19:41;102687.84;;;3.18;69.11
64066;BME280;50318;54.760;9.408;2023-03-01T03:22:26;102677.19;;;3.10;69.56
64066;BME280;50318;54.760;9.408;2023-03-01T03:25:13;102690.03;;;3.13;69.47
64066;BME280;50318;54.760;9.408;2023-03-01T03:27:59;102679.97;;;3.13;69.41
64066;BME280;50318;54.760;9.408;2023-03-01T03:30:46;102678.03;;;3.14;69.15
64066;BME280;50318;54.760;9.408;2023-03-01T03:33:33;102682.59;;;3.10;69.42
64066;BME280;50318;54.760;9.408;2023-03-01T03:35:59;102667.63;;;3.00;69.12
64066;BME280;50318;54.760;9.408;2023-03-01T03:38:25;102674.09;;;2.95;69.07
64066;BME280;50318;54.760;9.408;2023-03-01T03:41:00;102665.97;;;2.95;68.70
64066;BME280;50318;54.760;9.408;2023-03-01T03:43:26;102673.22;;;2.91;68.76
64066;BME280;50318;54.760;9.408;2023-03-01T03:45:52;102673.22;;;2.91;69.23
64066;BME280;50318;54.760;9.408;2023-03-01T03:48:19;102663.88;;;2.89;68.98
64066;BME280;50318;54.760;9.408;2023-03-01T03:50:51;102668.06;;;2.86;69.43
64066;BME280;50318;54.760;9.408;2023-03-01T03:53:18;102657.47;;;2.81;69.39
64066;BME280;50318;54.760;9.408;2023-03-01T03:55:45;102656.31;;;2.82;68.80
64066;BME280;50318;54.760;9.408;2023-03-01T03:58:11;102651.09;;;2.73;69.16
64066;BME280;50318;54.760;9.408;2023-03-01T04:00:41;102653.44;;;2.75;69.29
64066;BME280;50318;54.760;9.408;2023-03-01T04:03:08;102651.78;;;2.70;69.09
64066;BME280;50318;54.760;9.408;2023-03-01T04:05:36;102651.69;;;2.67;68.92
64066;BME280;50318;54.760;9.408;2023-03-01T04:08:03;102650.81;;;2.63;68.87
64066;BME280;50318;54.760;9.408;2023-03-01T04:10:32;102650.38;;;2.61;69.44
64066;BME280;50318;54.760;9.408;2023-03-01T04:12:58;102665.50;;;2.62;68.70
64066;BME280;50318;54.760;9.408;2023-03-01T04:15:26;102652.75;;;2.62;69.14
64066;BME280;50318;54.760;9.408;2023-03-01T04:17:53;102647.41;;;2.66;69.31
64066;BME280;50318;54.760;9.408;2023-03-01T04:20:23;102648.97;;;2.67;69.12
64066;BME280;50318;54.760;9.408;2023-03-01T04:25:23;102641.78;;;2.59;68.92
64066;BME280;50318;54.760;9.408;2023-03-01T04:27:52;102639.34;;;2.54;69.05
64066;BME280;50318;54.760;9.408;2023-03-01T04:30:18;102640.47;;;2.53;68.70
64066;BME280;50318;54.760;9.408;2023-03-01T04:32:44;102637.31;;;2.51;68.79
64066;BME280;50318;54.760;9.408;2023-03-01T04:35:10;102633.31;;;2.44;69.14
64066;BME280;50318;54.760;9.408;2023-03-01T04:37:36;102640.19;;;2.42;68.85
64066;BME280;50318;54.760;9.408;2023-03-01T04:40:03;102630.72;;;2.36;69.16
64066;BME280;50318;54.760;9.408;2023-03-01T04:42:30;102640.19;;;2.42;69.09
64066;BME280;50318;54.760;9.408;2023-03-01T04:44:56;102631.50;;;2.36;69.13
64066;BME280;50318;54.760;9.408;2023-03-01T04:47:22;102643.25;;;2.40;68.80
64066;BME280;50318;54.760;9.408;2023-03-01T04:49:48;102637.84;;;2.40;68.78
64066;BME280;50318;54.760;9.408;2023-03-01T04:52:15;102643.25;;;2.40;69.15
64066;BME280;50318;54.760;9.408;2023-03-01T04:54:44;102637.06;;;2.40;68.93
64066;BME280;50318;54.760;9.408;2023-03-01T04:57:10;102647.28;;;2.46;69.22
64066;BME280;50318;54.760;9.408;2023-03-01T04:59:36;102642.47;;;2.40;69.01
64066;BME280;50318;54.760;9.408;2023-03-01T05:02:02;102646.31;;;2.39;68.62
64066;BME280;50318;54.760;9.408;2023-03-01T05:04:30;102643.16;;;2.37;69.04
64066;BME280;50318;54.760;9.408;2023-03-01T05:06:56;102644.75;;;2.38;69.12
64066;BME280;50318;54.760;9.408;2023-03-01T05:09:22;102640.78;;;2.35;68.87
64066;BME280;50318;54.760;9.408;2023-03-01T05:11:48;102638.41;;;2.34;69.16
64066;BME280;50318;54.760;9.408;2023-03-01T05:14:15;102637.28;;;2.35;68.71
64066;BME280;50318;54.760;9.408;2023-03-01T05:16:41;102636.94;;;2.36;69.06
64066;BME280;50318;54.760;9.408;2023-03-01T05:19:07;102636.50;;;2.34;69.03
64066;BME280;50318;54.760;9.408;2023-03-01T05:21:33;102638.53;;;2.37;68.61
64066;BME280;50318;54.760;9.408;2023-03-01T05:23:59;102646.25;;;2.23;68.89
64066;BME280;50318;54.760;9.408;2023-03-01T05:26:26;102637.69;;;2.21;69.28
64066;BME280;50318;54.760;9.408;2023-03-01T05:28:52;102642.84;;;2.26;69.19
64066;BME280;50318;54.760;9.408;2023-03-01T05:31:18;102649.16;;;2.30;68.61
64066;BME280;50318;54.760;9.408;2023-03-01T05:33:44;102656.59;;;2.33;69.05
64066;BME280;50318;54.760;9.408;2023-03-01T05:36:10;102660.50;;;2.20;69.01
64066;BME280;50318;54.760;9.408;2023-03-01T05:38:37;102653.50;;;2.19;69.24
64066;BME280;50318;54.760;9.408;2023-03-01T05:41:03;102655.97;;;2.24;69.36
64066;BME280;50318;54.760;9.408;2023-03-01T05:43:32;102664.19;;;2.28;68.92
64066;BME280;50318;54.760;9.408;2023-03-01T05:45:59;102651.25;;;2.21;69.37
64066;BME280;50318;54.760;9.408;2023-03-01T05:48:25;102646.25;;;2.23;69.23
64066;BME280;50318;54.760;9.408;2023-03-01T05:50:51;102653.34;;;2.28;69.01
64066;BME280;50318;54.760;9.408;2023-03-01T05:53:20;102659.56;;;2.28;69.37
64066;BME280;50318;54.760;9.408;2023-03-01T05:55:46;102660.69;;;2.27;69.36
64066;BME280;50318;54.760;9.408;2023-03-01T05:58:17;102652.81;;;2.22;68.99
64066;BME280;50318;54.760;9.408;2023-03-01T06:00:45;102651.94;;;2.18;69.29
64066;BME280;50318;54.760;9.408;2023-03-01T06:03:13;102661.88;;;2.14;69.00
64066;BME280;50318;54.760;9.408;2023-03-01T06:05:40;102659.84;;;2.11;69.39
64066;BME280;50318;54.760;9.408;2023-03-01T06:08:08;102656.94;;;2.04;69.17
64066;BME280;50318;54.760;9.408;2023-03-01T06:10:35;102662.44;;;2.07;69.42
64066;BME280;50318;54.760;9.408;2023-03-01T06:13:01;102660.78;;;2.03;69.73
64066;BME280;50318;54.760;9.408;2023-03-01T06:15:27;102668.75;;;2.11;69.44
64066;BME280;50318;54.760;9.408;2023-03-01T06:17:54;102664.13;;;2.12;70.03
64066;BME280;50318;54.760;9.408;2023-03-01T06:20:23;102676.06;;;2.23;69.47
64066;BME280;50318;54.760;9.408;2023-03-01T06:22:52;102679.91;;;2.22;69.73
64066;BME280;50318;54.760;9.408;2023-03-01T06:25:21;102671.31;;;2.20;69.78
64066;BME280;50318;54.760;9.408;2023-03-01T06:27:48;102680.00;;;2.26;70.19
64066;BME280;50318;54.760;9.408;2023-03-01T06:30:16;102673.78;;;2.25;69.51
64066;BME280;50318;54.760;9.408;2023-03-01T06:32:43;102671.41;;;2.24;69.70
64066;BME280;50318;54.760;9.408;2023-03-01T06:35:12;102674.91;;;2.24;69.98
64066;BME280;50318;54.760;9.408;2023-03-01T06:37:38;102670.72;;;2.27;69.42
64066;BME280;50318;54.760;9.408;2023-03-01T06:40:05;102668.38;;;2.25;69.26
64066;BME280;50318;54.760;9.408;2023-03-01T06:42:32;102670.28;;;2.25;69.74
64066;BME280;50318;54.760;9.408;2023-03-01T06:44:58;102664.09;;;2.24;69.70
64066;BME280;50318;54.760;9.408;2023-03-01T06:47:24;102670.72;;;2.27;69.89
64066;BME280;50318;54.760;9.408;2023-03-01T06:49:50;102657.53;;;2.25;69.97
64066;BME280;50318;54.760;9.408;2023-03-01T06:52:16;102664.59;;;2.42;69.56
64066;BME280;50318;54.760;9.408;2023-03-01T06:54:43;102661.53;;;2.43;69.84
64066;BME280;50318;54.760;9.408;2023-03-01T06:57:12;102672.06;;;2.61;70.16
64066;BME280;50318;54.760;9.408;2023-03-01T06:59:38;102669.34;;;2.61;69.36
64066;BME280;50318;54.760;9.408;2023-03-01T07:02:04;102665.50;;;2.62;69.94
64066;BME280;50318;54.760;9.408;2023-03-01T07:04:30;102665.03;;;2.60;69.83
64066;BME280;50318;54.760;9.408;2023-03-01T07:06:56;102682.81;;;2.73;69.26
64066;BME280;50318;54.760;9.408;2023-03-01T07:09:23;102685.78;;;2.68;69.26
64066;BME280;50318;54.760;9.408;2023-03-01T07:11:50;102685.69;;;2.64;69.29
64066;BME280;50318;54.760;9.408;2023-03-01T07:14:16;102682.72;;;2.69;69.46
64066;BME280;50318;54.760;9.408;2023-03-01T07:16:42;102681.41;;;2.79;69.61
64066;BME280;50318;54.760;9.408;2023-03-01T07:19:08;102687.03;;;2.86;69.39
64066;BME280;50318;54.760;9.408;2023-03-01T07:21:35;102691.25;;;2.99;69.30
64066;BME280;50318;54.760;9.408;2023-03-01T07:24:01;102695.38;;;3.09;69.90
64066;BME280;50318;54.760;9.408;2023-03-01T07:26:27;102698.25;;;3.16;69.25
64066;BME280;50318;54.760;9.408;2023-03-01T07:28:53;102704.34;;;3.29;69.64
64066;BME280;50318;54.760;9.408;2023-03-01T07:31:19;102690.28;;;3.39;69.73
64066;BME280;50318;54.760;9.408;2023-03-01T07:33:46;102682.50;;;3.37;69.49
64066;BME280;50318;54.760;9.408;2023-03-01T07:36:12;102685.72;;;3.43;69.50
64066;BME280;50318;54.760;9.408;2023-03-01T07:38:38;102681.59;;;3.49;69.63
64066;BME280;50318;54.760;9.408;2023-03-01T07:41:04;102680.19;;;3.55;69.28
64066;BME280;50318;54.760;9.408;2023-03-01T07:43:31;102685.06;;;3.65;69.20
64066;BME280;50318;54.760;9.408;2023-03-01T07:46:01;102693.06;;;3.78;69.45
64066;BME280;50318;54.760;9.408;2023-03-01T07:48:28;102688.44;;;3.78;68.99
64066;BME280;50318;54.760;9.408;2023-03-01T07:50:54;102690.75;;;3.95;69.49
64066;BME280;50318;54.760;9.408;2023-03-01T07:53:20;102685.56;;;4.06;69.49
64066;BME280;50318;54.760;9.408;2023-03-01T07:55:46;102688.91;;;4.19;69.17
64066;BME280;50318;54.760;9.408;2023-03-01T07:58:13;102681.34;;;4.28;68.67
64066;BME280;50318;54.760;9.408;2023-03-01T08:00:39;102684.22;;;4.35;68.73
64066;BME280;50318;54.760;9.408;2023-03-01T08:03:05;102678.13;;;4.42;68.91
64066;BME280;50318;54.760;9.408;2023-03-01T08:05:32;102685.13;;;4.43;68.76
64066;BME280;50318;54.760;9.408;2023-03-01T08:07:58;102695.44;;;4.53;68.92
64066;BME280;50318;54.760;9.408;2023-03-01T08:10:24;102695.56;;;4.60;69.07
64066;BME280;50318;54.760;9.408;2023-03-01T08:12:53;102694.53;;;4.68;69.03
64066;BME280;50318;54.760;9.408;2023-03-01T08:15:19;102695.97;;;4.62;68.53
64066;BME280;50318;54.760;9.408;2023-03-01T08:17:48;102693.69;;;4.64;68.64
64066;BME280;50318;54.760;9.408;2023-03-01T08:20:15;102700.38;;;4.70;68.83
64066;BME280;50318;54.760;9.408;2023-03-01T08:22:41;102687.00;;;4.81;69.03
64066;BME280;50318;54.760;9.408;2023-03-01T08:25:08;102683.25;;;4.89;68.95
64066;BME280;50318;54.760;9.408;2023-03-01T08:27:34;102680.38;;;5.01;69.47
64066;BME280;50318;54.760;9.408;2023-03-01T08:30:00;102680.31;;;5.20;69.25
64066;BME280;50318;54.760;9.408;2023-03-01T08:32:27;102662.56;;;5.30;69.25
64066;BME280;50318;54.760;9.408;2023-03-01T08:34:53;102671.56;;;5.34;68.72
64066;BME280;50318;54.760;9.408;2023-03-01T08:37:19;102672.16;;;5.47;68.60
64066;BME280;50318;54.760;9.408;2023-03-01T08:39:46;102673.06;;;5.58;68.78
64066;BME280;50318;54.760;9.408;2023-03-01T08:42:12;102675.09;;;5.65;68.35
64066;BME280;50318;54.760;9.408;2023-03-01T08:44:38;102675.66;;;5.74;68.72
64066;BME280;50318;54.760;9.408;2023-03-01T08:47:04;102674.13;;;5.76;68.36
64066;BME280;50318;54.760;9.408;2023-03-01T08:49:31;102674.94;;;5.80;68.51
64066;BME280;50318;54.760;9.408;2023-03-01T08:51:57;102661.75;;;5.82;68.24
64066;BME280;50318;54.760;9.408;2023-03-01T08:54:23;102675.97;;;5.95;68.24
64066;BME280;50318;54.760;9.408;2023-03-01T08:56:49;102674.47;;;6.01;67.98
64066;BME280;50318;54.760;9.408;2023-03-01T08:59:16;102669.44;;;6.03;67.83
64066;BME280;50318;54.760;9.408;2023-03-01T09:01:43;102661.56;;;5.95;67.58
64066;BME280;50318;54.760;9.408;2023-03-01T09:04:10;102667.03;;;5.98;67.45
64066;BME280;50318;54.760;9.408;2023-03-01T09:06:37;102661.69;;;6.05;67.62
64066;BME280;50318;54.760;9.408;2023-03-01T09:09:15;102666.78;;;6.10;67.77
64066;BME280;50318;54.760;9.408;2023-03-01T09:11:42;102666.94;;;6.21;68.01
64066;BME280;50318;54.760;9.408;2023-03-01T09:14:08;102645.25;;;6.32;67.93
64066;BME280;50318;54.760;9.408;2023-03-01T09:16:34;102661.06;;;6.56;68.18
64066;BME280;50318;54.760;9.408;2023-03-01T09:19:04;102678.41;;;6.74;67.65
64066;BME280;50318;54.760;9.408;2023-03-01T09:21:32;102676.13;;;6.84;67.24
64066;BME280;50318;54.760;9.408;2023-03-01T09:23:59;102674.72;;;6.97;67.12
64066;BME280;50318;54.760;9.408;2023-03-01T09:26:25;102664.59;;;7.01;66.99
64066;BME280;50318;54.760;9.408;2023-03-01T09:28:55;102669.78;;;7.13;66.79
64066;BME280;50318;54.760;9.408;2023-03-01T09:31:23;102671.69;;;7.09;66.50
64066;BME280;50318;54.760;9.408;2023-03-01T09:33:52;102675.69;;;7.19;66.24
64066;BME280;50318;54.760;9.408;2023-03-01T09:36:21;102686.19;;;7.17;66.23
64066;BME280;50318;54.760;9.408;2023-03-01T09:38:48;102680.34;;;7.18;65.82
64066;BME280;50318;54.760;9.408;2023-03-01T09:41:49;102681.16;;;7.22;65.97
64066;BME280;50318;54.760;9.408;2023-03-01T09:44:40;102680.38;;;7.22;65.39
64066;BME280;50318;54.760;9.408;2023-03-01T09:47:20;102682.66;;;7.13;65.27
64066;BME280;50318;54.760;9.408;2023-03-01T09:50:11;102686.09;;;7.09;65.15
64066;BME280;50318;54.760;9.408;2023-03-01T10:09:38;102703.56;;;6.98;66.34
64066;BME280;50318;54.760;9.408;2023-03-01T10:12:11;102688.81;;;7.06;66.70
64066;BME280;50318;54.760;9.408;2023-03-01T10:15:04;102695.56;;;7.19;66.66
64066;BME280;50318;54.760;9.408;2023-03-01T10:17:57;102695.25;;;7.31;66.40
64066;BME280;50318;54.760;9.408;2023-03-01T10:20:28;102687.97;;;7.46;65.89
64066;BME280;50318;54.760;9.408;2023-03-01T10:22:55;102698.63;;;7.65;66.75
64066;BME280;50318;54.760;9.408;2023-03-01T10:25:55;102690.53;;;7.83;65.83
64066;BME280;50318;54.760;9.408;2023-03-01T10:28:35;102688.66;;;7.98;65.96
64066;BME280;50318;54.760;9.408;2023-03-01T10:31:13;102691.84;;;8.07;65.08
64066;BME280;50318;54.760;9.408;2023-03-01T10:33:40;102688.72;;;8.16;65.31
64066;BME280;50318;54.760;9.408;2023-03-01T10:36:07;102688.38;;;8.28;65.81
64066;BME280;50318;54.760;9.408;2023-03-01T10:42:32;102683.25;;;8.16;64.72
64066;BME280;50318;54.760;9.408;2023-03-01T10:45:30;102685.63;;;8.21;64.86
64066;BME280;50318;54.760;9.408;2023-03-01T10:50:44;102693.41;;;8.15;65.07
64066;BME280;50318;54.760;9.408;2023-03-01T10:59:40;102692.25;;;8.20;65.00
64066;BME280;50318;54.760;9.408;2023-03-01T11:04:38;102688.84;;;8.37;64.57
64066;BME280;50318;54.760;9.408;2023-03-01T11:07:04;102682.22;;;8.45;64.39
64066;BME280;50318;54.760;9.408;2023-03-01T11:09:32;102682.66;;;8.54;64.00
64066;BME280;50318;54.760;9.408;2023-03-01T11:12:00;102684.22;;;8.63;64.87
64066;BME280;50318;54.760;9.408;2023-03-01T11:14:35;102678.75;;;8.70;64.23
64066;BME280;50318;54.760;9.408;2023-03-01T11:17:05;102684.22;;;8.70;63.87
64066;BME280;50318;54.760;9.408;2023-03-01T11:19:37;102684.63;;;8.68;63.65
64066;BME280;50318;54.760;9.408;2023-03-01T11:22:15;102682.66;;;8.54;63.75
64066;BME280;50318;54.760;9.408;2023-03-01T11:24:46;102684.22;;;8.59;64.40
64066;BME280;50318;54.760;9.408;2023-03-01T11:27:28;102674.84;;;8.64;64.16
64066;BME280;50318;54.760;9.408;2023-03-01T11:30:18;102676.78;;;8.59;63.58
64066;BME280;50318;54.760;9.408;2023-03-01T11:35:28;102668.63;;;8.81;63.54
64066;BME280;50318;54.760;9.408;2023-03-01T11:40:57;102677.22;;;8.90;63.43
64066;BME280;50318;54.760;9.408;2023-03-01T12:03:28;102674.47;;;8.76;63.50
64066;BME280;50318;54.760;9.408;2023-03-01T12:06:12;102668.19;;;8.65;62.92
64066;BME280;50318;54.760;9.408;2023-03-01T12:12:02;102660.34;;;8.49;62.59
64066;BME280;50318;54.760;9.408;2023-03-01T12:26:35;102637.72;;;8.70;62.81
64066;BME280;50318;54.760;9.408;2023-03-01T12:29:42;102641.63;;;8.83;63.30
64066;BME280;50318;54.760;9.408;2023-03-01T12:48:40;102625.19;;;9.26;62.30
64066;BME280;50318;54.760;9.408;2023-03-01T12:51:14;102617.38;;;9.28;62.28
64066;BME280;50318;54.760;9.408;2023-03-01T12:53:48;102627.13;;;9.36;62.27
64066;BME280;50318;54.760;9.408;2023-03-01T12:56:22;102614.97;;;9.44;62.27
64066;BME280;50318;54.760;9.408;2023-03-01T12:59:13;102613.78;;;9.45;61.66
64066;BME280;50318;54.760;9.408;2023-03-01T13:01:49;102614.19;;;9.47;61.87
64066;BME280;50318;54.760;9.408;2023-03-01T13:04:25;102618.09;;;9.46;61.69
64066;BME280;50318;54.760;9.408;2023-03-01T13:20:31;102589.44;;;9.68;61.60
64066;BME280;50318;54.760;9.408;2023-03-01T13:23:06;102589.06;;;9.66;62.14
64066;BME280;50318;54.760;9.408;2023-03-01T13:31:05;102589.84;;;9.70;61.47
64066;BME280;50318;54.760;9.408;2023-03-01T13:35:58;102585.50;;;9.80;61.43
64066;BME280;50318;54.760;9.408;2023-03-01T13:38:48;102590.59;;;9.78;60.83
64066;BME280;50318;54.760;9.408;2023-03-01T13:47:16;102591.41;;;9.68;61.04
64066;BME280;50318;54.760;9.408;2023-03-01T13:50:02;102596.53;;;9.59;61.70
64066;BME280;50318;54.760;9.408;2023-03-01T13:52:45;102581.38;;;9.15;61.67
64066;BME280;50318;54.760;9.408;2023-03-01T13:57:44;102588.03;;;9.25;62.51
64066;BME280;50318;54.760;9.408;2023-03-01T14:00:27;102585.28;;;9.32;62.29
64066;BME280;50318;54.760;9.408;2023-03-01T14:03:02;102584.50;;;9.31;62.21
64066;BME280;50318;54.760;9.408;2023-03-01T14:05:33;102579.81;;;9.28;62.33
64066;BME280;50318;54.760;9.408;2023-03-01T14:07:59;102573.50;;;9.38;62.15
64066;BME280;50318;54.760;9.408;2023-03-01T14:11:20;102568.88;;;9.25;62.73
64066;BME280;50318;54.760;9.408;2023-03-01T14:16:17;102568.81;;;9.35;62.21
64066;BME280;50318;54.760;9.408;2023-03-01T14:21:41;102566.91;;;9.29;62.22
64066;BME280;50318;54.760;9.408;2023-03-01T14:24:17;102548.13;;;9.20;61.85
64066;BME280;50318;54.760;9.408;2023-03-01T14:26:43;102546.56;;;9.15;62.39
64066;BME280;50318;54.760;9.408;2023-03-01T14:29:37;102555.19;;;9.14;62.04
64066;BME280;50318;54.760;9.408;2023-03-01T14:34:48;102546.22;;;9.06;62.58
64066;BME280;50318;54.760;9.408;2023-03-01T14:39:48;102534.88;;;9.08;62.96
64066;BME280;50318;54.760;9.408;2023-03-01T14:42:14;102543.03;;;9.18;63.27
64066;BME280;50318;54.760;9.408;2023-03-01T14:44:50;102542.25;;;9.18;62.97
64066;BME280;50318;54.760;9.408;2023-03-01T14:47:32;102534.03;;;9.21;62.74
64066;BME280;50318;54.760;9.408;2023-03-01T14:50:09;102532.47;;;9.17;62.79
64066;BME280;50318;54.760;9.408;2023-03-01T14:52:42;102541.88;;;9.12;62.48
64066;BME280;50318;54.760;9.408;2023-03-01T14:55:32;102533.31;;;9.03;62.50
64066;BME280;50318;54.760;9.408;2023-03-01T14:57:59;102528.63;;;9.00;62.97
64066;BME280;50318;54.760;9.408;2023-03-01T15:00:27;102527.88;;;8.82;62.61
64066;BME280;50318;54.760;9.408;2023-03-01T15:03:14;102524.34;;;8.81;63.10
64066;BME280;50318;54.760;9.408;2023-03-01T15:05:44;102514.19;;;8.68;63.38
64066;BME280;50318;54.760;9.408;2023-03-01T15:08:18;102518.88;;;8.71;63.54
64066;BME280;50318;54.760;9.408;2023-03-01T15:11:00;102522.00;;;8.83;63.34
64066;BME280;50318;54.760;9.408;2023-03-01T15:13:31;102517.69;;;8.89;63.10
64066;BME280;50318;54.760;9.408;2023-03-01T15:16:06;102523.16;;;9.00;63.51
64066;BME280;50318;54.760;9.408;2023-03-01T15:18:34;102513.78;;;9.01;63.16
64066;BME280;50318;54.760;9.408;2023-03-01T15:21:15;102509.88;;;8.88;63.30
64066;BME280;50318;54.760;9.408;2023-03-01T15:23:41;102516.53;;;8.87;63.50
64066;BME280;50318;54.760;9.408;2023-03-01T15:26:31;102514.56;;;8.87;63.28
64066;BME280;50318;54.760;9.408;2023-03-01T15:28:59;102517.34;;;8.77;64.00
64066;BME280;50318;54.760;9.408;2023-03-01T15:31:31;102510.66;;;8.74;63.34
64066;BME280;50318;54.760;9.408;2023-03-01T15:34:29;102518.91;;;8.53;63.28